createdAt,value
2019-02-27T00:00:49.632Z,59.20
2019-02-27T00:03:23.012Z,54.77
2019-02-27T00:05:52.079Z,51.80
2019-02-27T00:08:21.090Z,57.67
2019-02-27T00:10:50.565Z,55.43
2019-02-27T00:13:19.670Z,55.93
2019-02-27T00:15:49.099Z,57.47
2019-02-27T00:18:23.706Z,55.37
2019-02-27T00:20:50.333Z,56.60
2019-02-27T00:23:23.788Z,53.43
2019-02-27T00:25:50.057Z,55.60
2019-02-27T00:28:23.120Z,56.70
2019-02-27T00:30:49.685Z,53.97
2019-02-27T00:33:18.675Z,57.63
2019-02-27T00:35:47.665Z,51.00
2019-02-27T00:38:16.555Z,56.50
2019-02-27T00:40:45.650Z,69.43
2019-02-27T00:43:14.642Z,66.03
2019-02-27T00:45:43.734Z,71.80
2019-02-27T00:48:12.778Z,78.90
2019-02-27T00:50:41.824Z,71.63
2019-02-27T00:53:10.815Z,66.43
2019-02-27T00:55:39.818Z,73.40
2019-02-27T00:58:08.903Z,63.67
2019-02-27T01:00:39.328Z,61.33
2019-02-27T01:03:08.562Z,59.50
2019-02-27T01:05:40.964Z,62.47
2019-02-27T01:08:08.351Z,65.77
2019-02-27T01:10:37.549Z,56.00
2019-02-27T01:13:06.540Z,59.60
2019-02-27T01:15:35.530Z,55.93
2019-02-27T01:18:04.527Z,59.37
2019-02-27T01:20:33.514Z,65.43
2019-02-27T01:23:02.610Z,55.83
2019-02-27T01:25:31.704Z,58.27
2019-02-27T01:28:01.645Z,61.87
2019-02-27T01:30:30.924Z,58.30
2019-02-27T01:33:03.957Z,57.70
2019-02-27T01:35:30.546Z,57.10
2019-02-27T01:37:59.639Z,52.27
2019-02-27T01:40:28.631Z,51.40
2019-02-27T01:42:57.724Z,53.33
2019-02-27T01:45:26.822Z,52.97
2019-02-27T01:47:56.016Z,54.93
2019-02-27T01:50:35.354Z,55.70
2019-02-27T01:53:07.097Z,52.37
2019-02-27T01:55:35.379Z,56.50
2019-02-27T01:58:04.480Z,51.93
2019-02-27T02:00:33.572Z,50.33
2019-02-27T02:03:02.664Z,50.10
2019-02-27T02:05:31.962Z,51.20
2019-02-27T02:08:01.471Z,51.80
2019-02-27T02:10:30.459Z,49.60
2019-02-27T02:13:14.772Z,57.10
2019-02-27T02:15:48.098Z,53.07
2019-02-27T02:18:37.647Z,53.00
2019-02-27T02:21:29.138Z,51.17
2019-02-27T02:24:20.929Z,52.47
2019-02-27T02:26:51.133Z,54.77
2019-02-27T02:29:52.974Z,56.37
2019-02-27T02:32:34.049Z,55.00
2019-02-27T02:35:31.520Z,52.77
2019-02-27T02:38:21.259Z,53.53
2019-02-27T02:41:11.319Z,52.83
2019-02-27T02:43:45.785Z,58.03
2019-02-27T02:46:26.546Z,56.10
2019-02-27T02:49:17.844Z,56.17
2019-02-27T02:51:55.411Z,52.40
2019-02-27T02:54:39.001Z,51.77
2019-02-27T02:57:22.826Z,49.50
2019-02-27T03:00:01.081Z,46.93
2019-02-27T03:03:00.712Z,51.97
2019-02-27T03:06:00.067Z,48.83
2019-02-27T03:09:03.906Z,49.40
2019-02-27T03:11:59.243Z,52.77
2019-02-27T03:14:45.686Z,54.67
2019-02-27T03:17:18.292Z,53.17
2019-02-27T03:20:43.329Z,49.87
2019-02-27T03:23:18.015Z,51.03
2019-02-27T03:25:52.383Z,50.33
2019-02-27T03:28:26.867Z,50.43
2019-02-27T03:31:01.127Z,52.27
2019-02-27T03:33:51.577Z,48.47
2019-02-27T03:36:48.900Z,53.60
2019-02-27T03:39:23.562Z,50.33
2019-02-27T03:42:00.993Z,49.00
2019-02-27T03:44:38.205Z,54.83
2019-02-27T03:47:24.886Z,55.60
2019-02-27T03:50:16.009Z,52.63
2019-02-27T03:53:02.857Z,57.57
2019-02-27T03:55:57.031Z,57.53
2019-02-27T03:58:37.438Z,61.63
2019-02-27T04:01:14.946Z,56.73
2019-02-27T04:04:06.022Z,54.77
2019-02-27T04:06:37.678Z,57.93
2019-02-27T04:09:08.510Z,55.03
2019-02-27T04:11:41.482Z,56.77
2019-02-27T04:14:26.809Z,59.30
2019-02-27T04:16:55.476Z,56.83
2019-02-27T04:19:24.160Z,56.03
2019-02-27T04:21:52.760Z,56.57
2019-02-27T04:24:22.531Z,58.33
2019-02-27T04:26:51.765Z,56.03
2019-02-27T04:29:21.012Z,61.63
2019-02-27T04:31:50.002Z,61.73
2019-02-27T04:34:19.110Z,62.60
2019-02-27T04:36:48.092Z,61.50
2019-02-27T04:39:17.072Z,56.60
2019-02-27T04:41:46.171Z,64.50
2019-02-27T04:44:15.168Z,63.97
2019-02-27T04:46:44.159Z,60.40
2019-02-27T04:49:13.135Z,66.53
2019-02-27T04:51:42.246Z,57.60
2019-02-27T04:54:11.340Z,61.30
2019-02-27T04:56:40.331Z,62.17
2019-02-27T04:59:09.425Z,63.60
2019-02-27T05:01:38.456Z,61.63
2019-02-27T05:04:07.512Z,60.07
2019-02-27T05:06:36.607Z,61.43
2019-02-27T05:09:07.284Z,63.00
2019-02-27T05:11:36.639Z,66.63
2019-02-27T05:14:05.617Z,64.47
2019-02-27T05:16:34.644Z,64.23
2019-02-27T05:19:04.133Z,60.37
2019-02-27T05:21:33.939Z,58.37
2019-02-27T05:24:05.275Z,58.13
2019-02-27T05:26:33.662Z,62.57
2019-02-27T05:29:02.656Z,59.60
2019-02-27T05:31:31.673Z,58.97
2019-02-27T05:34:00.846Z,58.17
2019-02-27T05:36:31.784Z,62.93
2019-02-27T05:39:00.456Z,62.10
2019-02-27T05:41:32.981Z,60.97
2019-02-27T05:44:00.193Z,60.30
2019-02-27T05:46:29.288Z,60.83
2019-02-27T05:48:58.427Z,61.13
2019-02-27T05:51:27.387Z,60.10
2019-02-27T05:53:58.469Z,62.93
2019-02-27T05:56:27.098Z,58.00
2019-02-27T05:58:56.246Z,58.63
2019-02-27T06:01:26.003Z,60.23
2019-02-27T06:03:54.996Z,61.67
2019-02-27T06:06:24.078Z,61.07
2019-02-27T06:08:53.203Z,58.77
2019-02-27T06:11:22.278Z,61.23
2019-02-27T06:13:51.361Z,58.13
2019-02-27T06:16:20.470Z,60.87
2019-02-27T06:18:49.564Z,62.93
2019-02-27T06:21:18.560Z,59.20
2019-02-27T06:23:47.959Z,57.17
2019-02-27T06:26:16.966Z,58.30
2019-02-27T06:28:46.042Z,55.87
2019-02-27T06:31:15.136Z,53.90
2019-02-27T06:33:45.761Z,57.10
2019-02-27T06:36:15.069Z,56.43
2019-02-27T06:38:44.062Z,57.27
2019-02-27T06:41:15.375Z,53.17
2019-02-27T06:43:43.786Z,54.90
2019-02-27T06:46:12.775Z,55.90
2019-02-27T06:48:43.575Z,54.20
2019-02-27T06:51:12.605Z,55.43
2019-02-27T06:53:41.696Z,55.67
2019-02-27T06:56:10.897Z,57.17
2019-02-27T06:58:41.566Z,52.93
2019-02-27T07:01:13.334Z,53.50
2019-02-27T07:03:44.108Z,54.63
2019-02-27T07:06:13.222Z,50.07
2019-02-27T07:08:42.204Z,50.93
2019-02-27T07:11:11.399Z,51.80
2019-02-27T07:13:40.808Z,50.03
2019-02-27T07:16:09.795Z,55.23
2019-02-27T07:18:41.501Z,56.33
2019-02-27T07:21:09.422Z,50.13
2019-02-27T07:23:38.532Z,52.57
2019-02-27T07:26:07.503Z,50.20
2019-02-27T07:28:36.700Z,48.83
2019-02-27T07:31:05.793Z,48.83
2019-02-27T07:33:34.892Z,47.00
2019-02-27T07:36:04.236Z,54.83
2019-02-27T07:38:33.488Z,44.80
2019-02-27T07:41:02.582Z,45.57
2019-02-27T07:43:31.677Z,52.67
2019-02-27T07:46:00.865Z,46.63
2019-02-27T07:48:29.966Z,47.97
2019-02-27T07:50:59.063Z,52.17
2019-02-27T07:53:28.057Z,49.67
2019-02-27T07:55:57.151Z,48.07
2019-02-27T07:58:26.141Z,50.17
2019-02-27T08:00:55.063Z,51.60
2019-02-27T08:03:24.227Z,54.20
2019-02-27T08:05:53.342Z,50.17
2019-02-27T08:08:23.748Z,48.20
2019-02-27T08:10:53.052Z,44.10
2019-02-27T08:13:22.145Z,46.50
2019-02-27T08:15:51.244Z,51.47
2019-02-27T08:18:29.531Z,51.70
2019-02-27T08:20:52.071Z,45.87
2019-02-27T08:23:21.492Z,47.10
2019-02-27T08:25:50.589Z,48.20
2019-02-27T08:28:19.683Z,47.30
2019-02-27T08:30:48.777Z,50.77
2019-02-27T08:33:17.874Z,49.03
2019-02-27T08:35:46.966Z,51.30
2019-02-27T08:38:16.059Z,51.67
2019-02-27T08:40:45.155Z,50.10
2019-02-27T08:43:14.249Z,50.50
2019-02-27T08:45:43.343Z,48.07
2019-02-27T08:48:17.151Z,48.33
2019-02-27T08:50:43.069Z,50.73
2019-02-27T08:53:12.163Z,52.83
2019-02-27T08:55:41.259Z,55.63
2019-02-27T08:58:10.352Z,49.80
2019-02-27T09:00:39.566Z,51.67
2019-02-27T09:03:08.471Z,50.77
2019-02-27T09:05:37.533Z,48.87
2019-02-27T09:08:07.344Z,52.13
2019-02-27T09:10:37.163Z,55.00
2019-02-27T09:13:06.209Z,49.57
2019-02-27T09:15:35.266Z,53.83
2019-02-27T09:18:04.337Z,51.17
2019-02-27T09:20:33.344Z,53.17
2019-02-27T09:23:02.243Z,51.50
2019-02-27T09:25:31.191Z,52.77
2019-02-27T09:28:00.103Z,50.63
2019-02-27T09:30:30.100Z,51.57
2019-02-27T09:32:59.167Z,55.27
2019-02-27T09:35:32.223Z,49.03
2019-02-27T09:37:59.056Z,52.10
2019-02-27T09:40:31.224Z,47.97
2019-02-27T09:43:00.831Z,52.37
2019-02-27T09:45:35.123Z,49.70
2019-02-27T09:48:04.724Z,49.23
2019-02-27T09:50:35.841Z,48.37
2019-02-27T09:53:05.092Z,50.53
2019-02-27T09:55:34.068Z,52.40
2019-02-27T09:58:03.272Z,50.40
2019-02-27T10:00:36.965Z,52.33
2019-02-27T10:03:05.966Z,47.50
2019-02-27T10:05:36.679Z,48.53
2019-02-27T10:08:07.611Z,51.23
2019-02-27T10:10:36.831Z,45.20
2019-02-27T10:13:05.920Z,47.60
2019-02-27T10:15:34.923Z,47.60
2019-02-27T10:18:04.006Z,46.33
2019-02-27T10:20:37.012Z,48.83
2019-02-27T10:23:03.729Z,48.83
2019-02-27T10:25:32.825Z,48.43
2019-02-27T10:28:04.390Z,48.70
2019-02-27T10:30:32.448Z,48.97
2019-02-27T10:33:03.270Z,48.37
2019-02-27T10:35:32.289Z,45.43
2019-02-27T10:38:01.477Z,47.47
2019-02-27T10:40:30.566Z,47.03
2019-02-27T10:42:59.560Z,46.07
2019-02-27T10:45:28.653Z,43.87
2019-02-27T10:47:57.746Z,46.43
2019-02-27T10:50:26.846Z,45.77
2019-02-27T10:52:55.943Z,46.40
2019-02-27T10:55:26.806Z,44.70
2019-02-27T10:57:55.662Z,45.33
2019-02-27T11:00:32.846Z,49.13
2019-02-27T11:03:02.660Z,48.73
2019-02-27T11:05:33.783Z,47.20
2019-02-27T11:08:02.792Z,41.00
2019-02-27T11:10:31.895Z,43.27
2019-02-27T11:13:05.475Z,47.20
2019-02-27T11:15:31.732Z,45.80
2019-02-27T11:18:04.229Z,46.30
2019-02-27T11:20:31.339Z,44.57
2019-02-27T11:23:00.459Z,40.83
2019-02-27T11:25:30.703Z,46.60
2019-02-27T11:27:59.858Z,45.20
2019-02-27T11:30:36.852Z,45.20
2019-02-27T11:33:05.013Z,46.40
2019-02-27T11:35:33.994Z,47.63
2019-02-27T11:38:03.111Z,48.87
2019-02-27T11:40:32.284Z,51.80
2019-02-27T11:43:04.164Z,54.97
2019-02-27T11:45:32.007Z,52.27
2019-02-27T11:48:01.102Z,46.47
2019-02-27T11:50:30.197Z,46.67
2019-02-27T11:53:01.977Z,48.97
2019-02-27T11:55:30.230Z,47.70
2019-02-27T11:58:02.032Z,48.23
2019-02-27T12:00:30.671Z,49.33
2019-02-27T12:02:59.982Z,41.07
2019-02-27T12:05:33.875Z,50.20
2019-02-27T12:08:00.110Z,46.90
2019-02-27T12:10:31.149Z,44.50
2019-02-27T12:13:01.307Z,43.73
2019-02-27T12:15:30.972Z,42.07
2019-02-27T12:18:01.328Z,41.60
2019-02-27T12:20:30.724Z,43.87
2019-02-27T12:22:59.796Z,44.23
2019-02-27T12:25:30.134Z,45.30
2019-02-27T12:27:59.517Z,44.60
2019-02-27T12:30:29.930Z,47.00
2019-02-27T12:32:59.012Z,45.20
2019-02-27T12:35:35.284Z,42.80
2019-02-27T12:38:08.293Z,45.57
2019-02-27T12:40:37.174Z,44.17
2019-02-27T12:43:08.086Z,42.30
2019-02-27T12:45:37.922Z,45.20
2019-02-27T12:48:07.560Z,44.37
2019-02-27T12:50:37.127Z,44.13
2019-02-27T12:53:06.437Z,45.43
2019-02-27T12:55:36.364Z,45.53
2019-02-27T12:58:05.858Z,42.40
2019-02-27T13:00:36.364Z,42.00
2019-02-27T13:03:08.389Z,40.57
2019-02-27T13:05:36.568Z,45.67
2019-02-27T13:08:06.332Z,44.90
2019-02-27T13:10:35.423Z,47.73
2019-02-27T13:13:05.878Z,47.00
2019-02-27T13:15:38.327Z,47.13
2019-02-27T13:18:08.224Z,40.23
2019-02-27T13:20:37.416Z,43.83
2019-02-27T13:23:06.802Z,45.03
2019-02-27T13:25:35.902Z,42.07
2019-02-27T13:28:05.534Z,42.20
2019-02-27T13:30:34.806Z,43.00
2019-02-27T13:33:04.432Z,39.97
2019-02-27T13:35:33.642Z,42.23
2019-02-27T13:38:03.039Z,42.07
2019-02-27T13:40:35.667Z,45.50
2019-02-27T13:43:04.200Z,43.63
2019-02-27T13:45:33.701Z,41.33
2019-02-27T13:48:05.804Z,43.47
2019-02-27T13:50:33.734Z,42.70
2019-02-27T13:53:03.293Z,42.03
2019-02-27T13:55:32.435Z,42.57
2019-02-27T13:58:03.716Z,40.13
2019-02-27T14:00:33.436Z,37.67
2019-02-27T14:03:02.485Z,41.93
2019-02-27T14:05:35.073Z,38.80
2019-02-27T14:08:02.313Z,37.73
2019-02-27T14:10:32.474Z,36.03
2019-02-27T14:13:01.524Z,40.67
2019-02-27T14:15:31.711Z,39.30
2019-02-27T14:18:01.150Z,39.07
2019-02-27T14:20:30.449Z,40.67
2019-02-27T14:22:59.642Z,41.93
2019-02-27T14:25:33.064Z,43.90
2019-02-27T14:28:01.518Z,42.07
2019-02-27T14:30:36.681Z,40.77
2019-02-27T14:33:05.729Z,46.50
2019-02-27T14:35:36.396Z,39.93
2019-02-27T14:38:05.884Z,42.50
2019-02-27T14:40:37.678Z,43.97
2019-02-27T14:43:06.278Z,46.53
2019-02-27T14:45:39.880Z,43.73
2019-02-27T14:48:06.060Z,48.10
2019-02-27T14:50:35.248Z,43.93
2019-02-27T14:53:04.588Z,48.50
2019-02-27T14:55:36.299Z,48.43
2019-02-27T14:58:04.602Z,53.80
2019-02-27T15:00:40.936Z,50.27
2019-02-27T15:03:09.070Z,47.83
2019-02-27T15:05:43.139Z,45.73
2019-02-27T15:08:08.843Z,47.07
2019-02-27T15:10:41.178Z,49.07
2019-02-27T15:13:09.791Z,48.03
2019-02-27T15:15:43.433Z,46.47
2019-02-27T15:18:10.657Z,48.07
2019-02-27T15:20:41.045Z,50.73
2019-02-27T15:23:10.376Z,49.33
2019-02-27T15:25:43.138Z,48.73
2019-02-27T15:28:10.174Z,47.80
2019-02-27T15:30:39.499Z,46.33
2019-02-27T15:33:08.594Z,47.93
2019-02-27T15:35:39.020Z,46.33
2019-02-27T15:38:11.764Z,47.00
2019-02-27T15:40:40.795Z,45.73
2019-02-27T15:43:11.546Z,44.57
2019-02-27T15:45:47.438Z,51.20
2019-02-27T15:48:11.258Z,42.27
2019-02-27T15:50:40.348Z,45.23
2019-02-27T15:53:12.137Z,48.63
2019-02-27T15:55:40.273Z,50.67
2019-02-27T15:58:10.298Z,44.10
2019-02-27T16:00:40.411Z,43.03
2019-02-27T16:03:11.751Z,51.73
2019-02-27T16:05:40.409Z,43.90
2019-02-27T16:08:09.441Z,43.77
2019-02-27T16:10:42.653Z,44.57
2019-02-27T16:13:10.035Z,41.93
2019-02-27T16:15:39.791Z,45.47
2019-02-27T16:18:09.253Z,43.80
2019-02-27T16:20:38.285Z,42.27
2019-02-27T16:23:07.379Z,40.90
2019-02-27T16:25:36.473Z,42.10
2019-02-27T16:28:05.986Z,46.87
2019-02-27T16:30:37.247Z,41.87
2019-02-27T16:33:07.186Z,41.87
2019-02-27T16:35:41.635Z,41.90
2019-02-27T16:38:07.113Z,42.37
2019-02-27T16:40:36.172Z,45.70
2019-02-27T16:43:05.257Z,45.90
2019-02-27T16:45:38.363Z,43.57
2019-02-27T16:48:07.575Z,45.47
2019-02-27T16:50:36.625Z,47.67
2019-02-27T16:53:06.649Z,46.60
2019-02-27T16:55:36.889Z,48.10
2019-02-27T16:58:06.379Z,48.03
2019-02-27T17:00:37.956Z,48.93
2019-02-27T17:03:10.229Z,47.23
2019-02-27T17:05:40.230Z,48.27
2019-02-27T17:08:08.387Z,50.53
2019-02-27T17:10:38.516Z,48.77
2019-02-27T17:13:07.503Z,50.03
2019-02-27T17:15:36.620Z,49.97
2019-02-27T17:18:05.798Z,52.23
2019-02-27T17:20:34.886Z,51.43
2019-02-27T17:23:07.529Z,49.83
2019-02-27T17:25:34.613Z,48.83
2019-02-27T17:28:03.705Z,51.33
2019-02-27T17:30:36.845Z,49.60
2019-02-27T17:33:05.254Z,54.07
2019-02-27T17:35:34.571Z,48.90
2019-02-27T17:38:03.695Z,50.77
2019-02-27T17:40:36.507Z,49.47
2019-02-27T17:43:03.494Z,51.13
2019-02-27T17:45:32.589Z,51.10
2019-02-27T17:48:01.689Z,53.90
2019-02-27T17:50:31.681Z,49.70
2019-02-27T17:53:01.516Z,46.97
2019-02-27T17:55:30.516Z,51.37
2019-02-27T17:57:59.597Z,50.83
2019-02-27T18:00:37.807Z,52.97
2019-02-27T18:03:07.321Z,55.10
2019-02-27T18:05:36.299Z,50.70
2019-02-27T18:08:05.643Z,52.60
2019-02-27T18:10:37.585Z,56.07
2019-02-27T18:13:05.532Z,53.13
2019-02-27T18:15:34.623Z,53.10
2019-02-27T18:18:07.086Z,51.87
2019-02-27T18:20:34.452Z,52.70
2019-02-27T18:23:03.544Z,56.43
2019-02-27T18:25:32.641Z,57.73
2019-02-27T18:28:01.782Z,54.63
2019-02-27T18:30:30.934Z,55.57
2019-02-27T18:33:01.151Z,55.03
2019-02-27T18:35:30.490Z,56.23
2019-02-27T18:37:59.648Z,54.03
2019-02-27T18:40:28.950Z,53.73
2019-02-27T18:42:58.043Z,54.77
2019-02-27T18:45:30.415Z,52.13
2019-02-27T18:47:59.417Z,54.60
2019-02-27T18:50:28.498Z,49.93
2019-02-27T18:52:57.615Z,49.50
2019-02-27T18:55:30.711Z,51.83
2019-02-27T18:57:57.116Z,56.57
2019-02-27T19:00:33.447Z,55.10
2019-02-27T19:03:07.181Z,54.70
2019-02-27T19:05:40.841Z,59.23
2019-02-27T19:08:08.445Z,54.73
2019-02-27T19:10:41.325Z,53.83
2019-02-27T19:13:08.374Z,53.70
2019-02-27T19:15:37.466Z,58.47
2019-02-27T19:18:07.305Z,59.60
2019-02-27T19:20:42.148Z,58.37
2019-02-27T19:23:11.305Z,50.77
2019-02-27T19:25:40.398Z,56.73
2019-02-27T19:28:10.400Z,56.47
2019-02-27T19:30:43.617Z,53.33
2019-02-27T19:33:14.632Z,57.67
2019-02-27T19:35:45.784Z,51.83
2019-02-27T19:38:16.217Z,52.00
2019-02-27T19:40:46.670Z,53.17
2019-02-27T19:43:18.172Z,58.97
2019-02-27T19:45:48.584Z,56.73
2019-02-27T19:48:18.124Z,58.87
2019-02-27T19:50:50.635Z,57.20
2019-02-27T19:53:19.796Z,51.83
2019-02-27T19:55:48.885Z,56.23
2019-02-27T19:58:18.362Z,55.33
2019-02-27T20:00:48.881Z,53.57
2019-02-27T20:03:18.132Z,52.43
2019-02-27T20:05:47.210Z,53.27
2019-02-27T20:08:16.205Z,56.53
2019-02-27T20:10:45.422Z,55.00
2019-02-27T20:13:14.595Z,55.00
2019-02-27T20:15:45.686Z,53.67
2019-02-27T20:18:14.643Z,55.57
2019-02-27T20:20:43.954Z,56.17
2019-02-27T20:23:13.023Z,58.10
2019-02-27T20:25:44.138Z,54.63
2019-02-27T20:28:12.851Z,55.47
2019-02-27T20:30:42.252Z,54.73
2019-02-27T20:33:11.346Z,57.73
2019-02-27T20:35:40.649Z,50.90
2019-02-27T20:38:15.375Z,52.67
2019-02-27T20:40:40.573Z,58.90
2019-02-27T20:43:09.672Z,59.90
2019-02-27T20:45:40.057Z,61.53
2019-02-27T20:48:09.597Z,64.37
2019-02-27T20:50:47.193Z,63.47
2019-02-27T20:53:16.286Z,60.30
2019-02-27T20:55:45.380Z,60.67
2019-02-27T20:58:16.870Z,60.53
2019-02-27T21:00:45.108Z,59.70
2019-02-27T21:03:14.207Z,61.90
2019-02-27T21:05:43.297Z,65.13
2019-02-27T21:08:12.394Z,63.90
2019-02-27T21:10:41.491Z,67.53
2019-02-27T21:13:15.654Z,63.70
2019-02-27T21:15:41.211Z,67.53
2019-02-27T21:18:10.407Z,68.93
2019-02-27T21:20:42.081Z,65.30
2019-02-27T21:23:10.244Z,69.03
2019-02-27T21:25:39.433Z,72.17
2019-02-27T21:28:08.528Z,68.87
2019-02-27T21:30:37.621Z,77.07
2019-02-27T21:33:08.347Z,73.60
2019-02-27T21:35:37.346Z,76.93
2019-02-27T21:38:06.442Z,77.67
2019-02-27T21:40:36.272Z,79.73
2019-02-27T21:43:06.477Z,80.63
2019-02-27T21:45:37.432Z,85.93
2019-02-27T21:48:06.195Z,86.93
2019-02-27T21:50:39.535Z,84.30
2019-02-27T21:53:06.741Z,84.67
2019-02-27T21:55:35.838Z,85.20
2019-02-27T21:58:04.949Z,83.27
2019-02-27T22:00:34.125Z,85.87
2019-02-27T22:03:05.029Z,82.10
2019-02-27T22:05:42.569Z,90.07
2019-02-27T22:08:05.490Z,88.70
2019-02-27T22:10:35.113Z,89.70
2019-02-27T22:13:09.290Z,93.83
2019-02-27T22:15:34.650Z,83.00
2019-02-27T22:18:03.727Z,88.77
2019-02-27T22:20:32.719Z,86.60
2019-02-27T22:23:01.812Z,86.63
2019-02-27T22:25:31.272Z,85.07
2019-02-27T22:28:00.513Z,77.60
2019-02-27T22:30:31.734Z,86.43
2019-02-27T22:33:00.243Z,81.87
2019-02-27T22:35:30.444Z,88.97
2019-02-27T22:37:59.656Z,87.20
2019-02-27T22:40:28.751Z,78.47
2019-02-27T22:42:57.844Z,78.20
2019-02-27T22:45:26.838Z,91.77
2019-02-27T22:47:57.538Z,89.27
2019-02-27T22:50:26.767Z,93.27
2019-02-27T22:52:55.769Z,80.57
2019-02-27T22:55:24.854Z,91.17
2019-02-27T22:57:54.856Z,102.83
2019-02-27T23:00:31.851Z,90.90
2019-02-27T23:03:00.763Z,93.20
2019-02-27T23:05:29.701Z,91.87
2019-02-27T23:07:59.750Z,90.47
2019-02-27T23:10:30.945Z,103.63
2019-02-27T23:12:59.983Z,95.60
2019-02-27T23:15:28.976Z,93.73
2019-02-27T23:17:58.070Z,84.90
2019-02-27T23:20:27.165Z,101.33
2019-02-27T23:22:56.262Z,109.67
2019-02-27T23:25:25.352Z,99.17
2019-02-27T23:27:54.448Z,101.73
2019-02-27T23:30:23.545Z,98.20
2019-02-27T23:32:52.638Z,91.40
2019-02-27T23:35:21.731Z,99.87
2019-02-27T23:37:50.826Z,97.00
2019-02-27T23:40:19.924Z,93.00
2019-02-27T23:42:49.016Z,103.50
2019-02-27T23:45:18.111Z,104.97
2019-02-27T23:47:47.204Z,99.70
2019-02-27T23:50:16.224Z,99.43
2019-02-27T23:52:45.294Z,97.83
2019-02-27T23:55:14.284Z,97.57
2019-02-27T23:57:43.378Z,101.53
